Atlanta, GA

7:03 AM EST on December 28, 2014 (GMT -0500)
The Hartsfield Atlanta International | Change Station
CLOSE
Current Station
Airport
Location: Atlanta,
Elevation: 1024 ft
Nearby Weather Stations
Active Advisory: Areal Flood Watch

Elev 1024 ft 33.63 °N, 84.44 °W | Updated 11 minutes ago

Rain
Rain
55 °F
Feels Like 55 °F
N
5
Wind Variable Wind from SSE

Today
High -- | Low -- °F
--% Chance of Precip.
Yesterday
High -- | Low -- °F
Precip. -- in
7:41 AM 5:36 PM
Waxing Crescent, 47% visible
Pressure 30.07 in
Visibility 7.0 miles
Clouds Few 500 ft
Mostly Cloudy 6000 ft
Overcast 9000 ft
Dew Point 53 °F
Humidity 93%
Rainfall 1.85 in
Snow Depth Not available.
UV 0 out of 12
Pollen 1.30 out of 12
Air Quality Not available.
Flu Activity Not available.
METAR KATL 281152Z 16004KT 7SM -RA FEW005 BKN060 OVC090 13/12 A3007 RMK AO2 SLP182 P0009 60185 70191 T01280117 10133 20117 57017 $

More Conditions Fewer Conditions

Pressure 30.07 in
Visibility 7.0 miles
Clouds Few 500 ft
Mostly Cloudy 6000 ft
Overcast 9000 ft
Dew Point 53 °F
Humidity 93%
Rainfall 1.85 in
Snow Depth Not available.
UV 0 out of 12
Pollen 1.30 out of 12
Air Quality Not available.
Flu Activity Not available.
METAR KATL 281152Z 16004KT 7SM -RA FEW005 BKN060 OVC090 13/12 A3007 RMK AO2 SLP182 P0009 60185 70191 T01280117 10133 20117 57017 $

More Conditions Fewer Conditions

10-Day Weather Forecast

Almanac

Astronomy

Dec. 28, 2014 Rise Set
Actual Time
Civil Twilight
Nautical Twilight
Astronomical Twilight
Moon
Length of Visible Light
Length of Day
Tomorrow will be .
, % of the Moon is Illuminated

Today's Extremes

State Highs State Lows

Community

WunderPhotos

Upload Photos

1,781,231 photos uploaded!

WunderBlogs® & News

Nearby

Air Quality

  Air Quality AQ Index Pollutant
Not available.

Snow Depth

Station Depth Elevation

Earthquake Activity

City Distance Mag. Time & Date
Minimum magnitude displayed is 2.5.

Coastal Water Temperatures

Place Temperature

Nearby Weather Stations